Time;durP1;ratioP1;P1;durP2;ratioP2;P2;SDS_P1;SDS_P2;PMS_P1;PMS_P2;Temp;Humidity;BMP_temperature;BMP_pressure;BME280_temperature;BME280_humidity;BME280_pressure;Samples;Min_cycle;Max_cycle;Signal;HPM_P1;HPM_P2
2022/05/19 00:01:01;;;;;;;2.53;0.90;;;;;;;14.05;38.84;101007.53;4427580;32;31772;-85
2022/05/19 00:03:33;;;;;;;4.62;1.00;;;;;;;14.02;38.95;101005.19;4442561;32;33837;-85
2022/05/19 00:06:02;;;;;;;1.87;0.80;;;;;;;13.88;39.27;101011.62;4440466;32;34385;-84
2022/05/19 00:08:30;;;;;;;3.17;0.70;;;;;;;13.94;38.91;101004.47;4440343;32;34768;-85
2022/05/19 00:11:03;;;;;;;3.42;1.02;;;;;;;13.81;39.12;101014.31;4440375;32;32123;-85
2022/05/19 00:13:31;;;;;;;2.35;1.00;;;;;;;13.87;39.21;101015.44;4440767;32;33905;-85
2022/05/19 00:15:59;;;;;;;1.85;0.90;;;;;;;13.86;39.19;101019.25;4440245;32;34032;-85
2022/05/19 00:18:27;;;;;;;3.47;1.20;;;;;;;13.76;39.23;101004.94;4446601;32;32370;-85
2022/05/19 00:20:55;;;;;;;3.58;0.90;;;;;;;13.74;39.29;101015.31;4440208;32;33665;-85
2022/05/19 00:23:28;;;;;;;1.17;0.68;;;;;;;13.80;39.27;101015.38;4427518;32;33268;-85
2022/05/19 00:25:56;;;;;;;2.62;0.90;;;;;;;13.82;39.42;101016.03;4439974;32;35210;-85
2022/05/19 00:28:26;;;;;;;2.70;1.20;;;;;;;13.67;39.82;101020.75;4440081;32;34313;-85
2022/05/19 00:30:56;;;;;;;3.72;1.40;;;;;;;13.59;40.10;101014.56;4439953;32;33095;-85
2022/05/19 00:33:27;;;;;;;12.45;4.82;;;;;;;13.57;40.08;101009.22;4452756;32;34476;-84
2022/05/19 00:35:55;;;;;;;28.62;10.93;;;;;;;13.54;40.11;101014.28;4439766;32;32919;-84
2022/05/19 00:38:26;;;;;;;34.97;11.43;;;;;;;13.58;40.07;101010.94;4427170;32;32629;-85
2022/05/19 00:40:54;;;;;;;26.65;8.77;;;;;;;13.78;39.78;101011.09;4452521;32;34291;-85
2022/05/19 00:43:30;;;;;;;17.95;5.68;;;;;;;13.50;40.60;101013.81;4427249;32;32185;-85
2022/05/19 00:46:15;;;;;;;9.63;2.85;;;;;;;13.45;40.75;101011.66;4439897;32;34352;-85
2022/05/19 00:48:48;;;;;;;6.03;2.00;;;;;;;13.38;40.81;101021.75;4439971;32;34775;-85
2022/05/19 00:51:17;;;;;;;7.35;1.70;;;;;;;13.39;40.53;101014.34;4439746;32;32810;-85
2022/05/19 00:53:52;;;;;;;5.35;1.55;;;;;;;13.43;40.18;101013.75;4439795;32;34456;-84
2022/05/19 00:56:25;;;;;;;4.50;1.35;;;;;;;13.51;40.12;101015.53;4427402;32;35322;-85
2022/05/19 00:59:03;;;;;;;3.80;1.33;;;;;;;13.46;40.38;101016.13;4436309;32;33508;-84
2022/05/19 01:01:32;;;;;;;4.20;1.25;;;;;;;13.45;40.70;101011.66;4424130;32;34320;-84
2022/05/19 01:04:09;;;;;;;2.42;1.15;;;;;;;13.47;40.75;101006.78;4423884;32;31810;-84
2022/05/19 01:06:40;;;;;;;8.65;1.00;;;;;;;13.21;41.45;101003.72;4424034;32;33608;-85
2022/05/19 01:09:10;;;;;;;5.07;1.10;;;;;;;13.29;41.26;101003.59;4424153;32;32578;-85
2022/05/19 01:11:38;;;;;;;2.87;1.20;;;;;;;13.24;41.30;101008.84;4426084;32;31992;-85
2022/05/19 01:14:06;;;;;;;3.35;0.88;;;;;;;13.19;41.20;101006.69;4426092;32;33300;-84
2022/05/19 01:16:34;;;;;;;1.50;0.88;;;;;;;13.13;41.52;101012.06;4413349;32;33014;-84
2022/05/19 01:19:05;;;;;;;2.33;0.90;;;;;;;13.13;41.66;101009.31;4425272;32;32577;-85
2022/05/19 01:21:33;;;;;;;1.90;0.82;;;;;;;13.18;41.57;101012.38;4428768;32;33450;-84
2022/05/19 01:24:18;;;;;;;3.12;1.00;;;;;;;12.90;42.19;101011.38;4428626;32;32230;-84
2022/05/19 01:26:50;;;;;;;3.45;1.08;;;;;;;13.02;41.73;101004.31;4428805;32;34818;-84
2022/05/19 01:29:20;;;;;;;2.83;1.02;;;;;;;12.97;41.67;101007.66;4441327;32;34350;-84
2022/05/19 01:31:53;;;;;;;3.17;1.12;;;;;;;12.96;41.77;101008.72;4428931;32;33406;-84
2022/05/19 01:34:24;;;;;;;1.52;0.90;;;;;;;12.86;42.29;101014.50;4416069;32;32389;-84
2022/05/19 01:36:52;;;;;;;3.65;0.90;;;;;;;12.77;42.61;101006.53;4414733;32;33930;-84
2022/05/19 01:39:23;;;;;;;2.67;0.80;;;;;;;12.75;42.52;100994.84;4415889;32;33395;-84
2022/05/19 01:42:09;;;;;;;4.30;0.95;;;;;;;12.80;42.09;100996.00;4415980;32;32011;-84
2022/05/19 01:45:08;;;;;;;1.98;0.93;;;;;;;12.65;42.15;101002.56;4428677;32;32163;-85
2022/05/19 01:47:45;;;;;;;3.20;1.10;;;;;;;12.69;41.99;101003.88;4428492;32;32893;-84
2022/05/19 01:50:19;;;;;;;2.80;1.00;;;;;;;12.70;42.09;101000.94;4428410;32;32471;-84
2022/05/19 01:53:02;;;;;;;2.53;1.10;;;;;;;12.70;42.21;101002.84;4428611;32;32015;-84
2022/05/19 01:56:00;;;;;;;2.17;0.75;;;;;;;12.59;42.45;101003.31;4428508;32;33409;-84
2022/05/19 01:58:43;;;;;;;3.15;1.10;;;;;;;12.60;42.53;101005.88;4412315;32;32887;-85
2022/05/19 02:01:13;;;;;;;2.30;1.00;;;;;;;12.67;42.45;101012.34;4428963;32;34573;-85
2022/05/19 02:03:44;;;;;;;2.83;0.80;;;;;;;12.44;42.70;101017.06;4416091;32;31964;-84
2022/05/19 02:06:33;;;;;;;1.73;0.80;;;;;;;12.34;42.86;101024.78;4441237;32;33479;-84
2022/05/19 02:09:15;;;;;;;1.75;0.90;;;;;;;12.21;42.49;101017.16;4455123;32;35194;-84
2022/05/19 02:11:46;;;;;;;2.28;0.80;;;;;;;12.21;42.74;101028.19;4428349;32;33538;-85
2022/05/19 02:14:42;;;;;;;4.12;1.00;;;;;;;12.23;42.89;101017.84;4428402;32;33274;-84
2022/05/19 02:17:12;;;;;;;1.90;0.80;;;;;;;12.36;42.82;101014.41;4414831;32;33905;-84
2022/05/19 02:19:43;;;;;;;2.15;0.80;;;;;;;12.39;42.73;101009.38;4415538;32;32825;-85
2022/05/19 02:22:15;;;;;;;2.25;0.90;;;;;;;12.40;42.97;101007.47;4427709;32;32552;-85
2022/05/19 02:25:12;;;;;;;1.75;0.90;;;;;;;12.44;42.88;101011.56;4428510;32;33772;-84
2022/05/19 02:27:44;;;;;;;1.25;0.80;;;;;;;12.37;43.08;101021.62;4408046;32;33336;-84
2022/05/19 02:30:16;;;;;;;3.20;0.98;;;;;;;12.42;42.99;101021.91;4428376;32;34281;-85
2022/05/19 02:32:44;;;;;;;3.35;1.12;;;;;;;12.41;43.00;101022.94;4415763;32;33413;-84
2022/05/19 02:35:13;;;;;;;2.75;0.90;;;;;;;12.42;42.91;101024.66;4428609;32;33622;-85
2022/05/19 02:37:42;;;;;;;2.50;1.27;;;;;;;12.35;42.91;101021.81;4428571;32;33634;-84
2022/05/19 02:40:12;;;;;;;2.15;0.77;;;;;;;12.36;42.66;101026.28;4428288;32;32704;-84
2022/05/19 02:42:40;;;;;;;2.22;1.00;;;;;;;12.30;42.79;101031.69;4428416;32;34572;-84
2022/05/19 02:45:09;;;;;;;1.87;0.98;;;;;;;12.22;42.62;101031.78;4428319;32;33501;-84
2022/05/19 02:47:37;;;;;;;2.22;0.80;;;;;;;12.11;43.29;101033.09;4428184;32;32370;-84
2022/05/19 02:50:06;;;;;;;2.55;0.93;;;;;;;11.98;43.92;101033.72;4428362;32;34977;-84
2022/05/19 02:52:41;;;;;;;2.95;1.00;;;;;;;12.08;43.34;101034.31;4428751;32;33322;-84
2022/05/19 02:55:10;;;;;;;4.50;0.90;;;;;;;12.10;43.04;101032.22;4428319;32;33559;-84
2022/05/19 02:57:38;;;;;;;3.85;1.10;;;;;;;12.13;42.71;101045.62;4428560;32;34768;-84
2022/05/19 03:00:12;;;;;;;2.62;1.10;;;;;;;12.07;42.83;101040.84;4440762;32;32863;-84
2022/05/19 03:02:41;;;;;;;3.92;0.90;;;;;;;12.11;42.78;101039.44;4428271;32;34231;-84
2022/05/19 03:05:12;;;;;;;3.62;0.90;;;;;;;12.04;42.96;101041.22;4415419;32;32946;-84
2022/05/19 03:07:39;;;;;;;2.25;1.00;;;;;;;12.11;43.04;101039.44;4428160;32;33895;-84
2022/05/19 03:10:10;;;;;;;3.33;1.10;;;;;;;12.05;43.40;101037.44;4428475;32;34674;-84
2022/05/19 03:12:38;;;;;;;2.87;0.90;;;;;;;12.10;43.54;101048.75;4427391;32;33503;-84
2022/05/19 03:15:06;;;;;;;3.30;1.20;;;;;;;11.97;43.67;101044.91;4427683;32;32786;-84
2022/05/19 03:17:35;;;;;;;2.25;0.98;;;;;;;11.96;43.57;101052.31;4427682;32;32529;-84
2022/05/19 03:20:04;;;;;;;4.62;0.90;;;;;;;11.96;43.67;101049.53;4440699;32;35382;-84
2022/05/19 03:22:33;;;;;;;2.47;0.90;;;;;;;12.00;43.67;101050.03;4427963;32;34117;-84
2022/05/19 03:25:05;;;;;;;2.95;1.30;;;;;;;11.96;43.85;101043.19;4427962;32;32354;-84
2022/05/19 03:27:34;;;;;;;1.83;0.90;;;;;;;12.01;43.72;101049.00;4427830;32;32357;-84
2022/05/19 03:30:11;;;;;;;2.42;1.10;;;;;;;11.99;43.82;101054.69;4429046;32;34319;-84
2022/05/19 03:32:39;;;;;;;4.07;1.37;;;;;;;11.96;44.03;101056.94;4427782;32;34631;-84
2022/05/19 03:35:08;;;;;;;1.92;0.85;;;;;;;12.02;44.15;101057.06;4440449;32;33294;-84
2022/05/19 03:37:36;;;;;;;3.12;1.20;;;;;;;11.96;44.39;101063.31;4427547;32;32323;-84
2022/05/19 03:40:04;;;;;;;2.75;1.30;;;;;;;11.88;44.59;101060.63;4427801;32;34580;-84
2022/05/19 03:42:32;;;;;;;6.78;1.27;;;;;;;12.01;44.16;101065.50;4442986;32;33894;-85
2022/05/19 03:45:00;;;;;;;3.30;1.02;;;;;;;11.83;44.93;101069.41;4443041;32;33757;-84
2022/05/19 03:47:30;;;;;;;3.20;1.30;;;;;;;11.86;44.98;101068.19;4440565;32;34492;-84
2022/05/19 03:49:59;;;;;;;3.72;1.05;;;;;;;11.79;45.21;101068.06;4440826;32;34651;-84
2022/05/19 03:52:29;;;;;;;3.03;1.20;;;;;;;11.77;45.44;101074.78;4428294;32;33891;-84
2022/05/19 03:54:57;;;;;;;3.28;1.10;;;;;;;11.89;45.08;101078.84;4428006;32;33320;-90
2022/05/19 03:57:25;;;;;;;3.97;1.17;;;;;;;11.87;45.17;101076.25;4440523;32;34618;-89
2022/05/19 03:59:53;;;;;;;2.75;1.10;;;;;;;11.90;45.09;101072.28;4427700;32;33492;-87
2022/05/19 04:02:21;;;;;;;2.90;1.00;;;;;;;12.04;44.88;101068.75;4443129;32;33993;-86
2022/05/19 04:05:03;;;;;;;3.37;1.30;;;;;;;12.02;45.99;101075.47;4433149;32;33063;-84
2022/05/19 04:07:32;;;;;;;2.85;1.00;;;;;;;12.21;45.40;101077.72;4456046;32;33969;-85
2022/05/19 04:10:04;;;;;;;3.20;1.60;;;;;;;12.28;45.34;101083.34;4441853;32;33958;-84
2022/05/19 04:12:33;;;;;;;3.65;1.52;;;;;;;12.34;45.60;101077.09;4442987;32;32612;-85
2022/05/19 04:15:03;;;;;;;6.25;1.65;;;;;;;12.74;44.13;101084.06;4442946;32;32914;-84
2022/05/19 04:17:33;;;;;;;4.30;1.62;;;;;;;12.67;44.09;101086.72;4441625;32;33675;-84
2022/05/19 04:20:04;;;;;;;3.20;1.40;;;;;;;12.38;44.65;101100.41;4428460;32;34787;-84
2022/05/19 04:22:31;;;;;;;4.15;1.42;;;;;;;12.42;45.26;101096.25;4453536;32;33715;-84
2022/05/19 04:25:00;;;;;;;3.60;1.30;;;;;;;12.46;45.80;101092.09;4427999;32;31995;-84
2022/05/19 04:27:29;;;;;;;3.55;1.40;;;;;;;12.38;45.46;101103.16;4438265;32;33650;-84
2022/05/19 04:29:56;;;;;;;5.85;1.50;;;;;;;12.45;44.74;101105.00;4419825;32;32729;-85
2022/05/19 04:32:35;;;;;;;4.77;1.63;;;;;;;12.60;44.98;101099.50;4434286;32;33843;-84
2022/05/19 04:35:08;;;;;;;7.43;3.00;;;;;;;12.68;45.56;101102.19;4421608;32;32021;-83
2022/05/19 04:37:40;;;;;;;7.50;3.40;;;;;;;12.78;45.82;101099.16;4420301;32;32309;-84
2022/05/19 04:40:18;;;;;;;14.80;6.70;;;;;;;13.06;44.69;101100.19;4431540;32;33441;-84
2022/05/19 04:42:46;;;;;;;7.95;3.35;;;;;;;13.09;43.99;101098.94;4424756;32;32566;-84
2022/05/19 04:45:18;;;;;;;4.57;1.83;;;;;;;13.30;43.41;101095.44;4443432;32;33315;-84
2022/05/19 04:47:50;;;;;;;3.75;1.58;;;;;;;13.29;43.18;101093.75;4444643;32;34475;-85
2022/05/19 04:50:19;;;;;;;4.28;1.20;;;;;;;13.20;43.74;101090.22;4431282;32;32564;-84
2022/05/19 04:52:48;;;;;;;5.90;1.60;;;;;;;13.29;44.50;101094.59;4444729;32;34999;-87
2022/05/19 04:55:18;;;;;;;4.28;1.52;;;;;;;13.45;44.55;101090.78;4444448;32;33764;-85
2022/05/19 04:57:47;;;;;;;6.32;1.50;;;;;;;13.58;43.56;101092.84;4432073;32;32380;-84
2022/05/19 05:00:15;;;;;;;4.40;1.48;;;;;;;13.69;42.94;101087.63;4431684;32;33295;-85
2022/05/19 05:02:43;;;;;;;6.78;3.20;;;;;;;13.67;42.83;101089.72;4431816;32;32462;-84
2022/05/19 05:12:38;;;;;;;8.57;2.80;;;;;;;14.10;44.12;101095.28;4361889;32;32822;-84
2022/05/19 05:16:04;;;;;;;9.60;2.15;;;;;;;14.25;43.57;101095.22;4361999;32;33065;-89
2022/05/19 05:18:56;;;;;;;11.98;6.20;;;;;;;14.77;51.74;101095.66;4355223;32;31841;-83
2022/05/19 05:21:30;;;;;;;7.93;3.15;;;;;;;14.71;46.53;101093.69;4372868;32;34654;-81
2022/05/19 05:23:58;;;;;;;7.45;2.85;;;;;;;14.73;46.80;101094.34;4453202;32;35293;-81
2022/05/19 05:26:27;;;;;;;6.18;2.78;;;;;;;15.00;49.91;101102.78;4439195;32;34196;-78
2022/05/19 05:28:54;;;;;;;6.07;2.70;;;;;;;15.10;48.79;101106.91;4440434;32;33446;-76
2022/05/19 05:31:23;;;;;;;5.12;2.17;;;;;;;15.57;48.81;101107.16;4453315;32;33819;-76
2022/05/19 05:33:52;;;;;;;8.00;2.53;;;;;;;15.84;48.36;101103.41;4454364;32;34537;-76
2022/05/19 05:36:19;;;;;;;9.57;2.40;;;;;;;16.15;45.70;101105.59;4454991;32;34445;-76
2022/05/19 05:38:47;;;;;;;14.98;8.07;;;;;;;16.13;44.71;101111.34;4441231;32;33292;-78
2022/05/19 05:41:18;;;;;;;8.48;2.20;;;;;;;16.35;45.66;101105.59;4428792;32;33904;-77
2022/05/19 05:43:45;;;;;;;13.30;6.07;;;;;;;16.42;44.39;101109.22;4454225;32;34251;-77
2022/05/19 05:46:15;;;;;;;8.35;2.80;;;;;;;16.56;43.58;101110.94;4428800;32;33832;-78
2022/05/19 05:48:45;;;;;;;9.15;3.35;;;;;;;16.72;43.51;101113.31;4428876;32;34102;-78
2022/05/19 05:51:14;;;;;;;8.25;3.70;;;;;;;16.85;41.75;101112.44;4428640;32;32315;-77
2022/05/19 05:53:43;;;;;;;14.23;5.37;;;;;;;16.92;44.45;101112.41;4441170;32;33993;-78
2022/05/19 05:56:14;;;;;;;10.60;5.65;;;;;;;17.12;43.26;101116.00;4427772;32;32979;-77
2022/05/19 05:58:44;;;;;;;8.40;3.90;;;;;;;17.31;43.69;101114.25;4441111;32;32005;-79
2022/05/19 06:01:15;;;;;;;16.05;6.15;;;;;;;17.49;43.10;101111.63;4454180;32;34527;-82
2022/05/19 06:03:47;;;;;;;8.02;4.07;;;;;;;17.68;41.16;101112.59;4441618;32;34697;-82
2022/05/19 06:06:15;;;;;;;7.72;3.72;;;;;;;17.59;39.31;101119.44;4441324;32;34713;-82
2022/05/19 06:08:45;;;;;;;9.05;4.00;;;;;;;17.68;40.37;101115.37;4441084;32;31993;-82
2022/05/19 06:11:13;;;;;;;10.40;4.57;;;;;;;17.71;38.00;101112.16;4441058;32;33222;-82
2022/05/19 06:13:42;;;;;;;7.85;3.42;;;;;;;17.68;38.70;101107.91;4441113;32;32692;-82
2022/05/19 06:16:11;;;;;;;16.77;5.55;;;;;;;17.71;40.18;101098.28;4428557;32;33118;-79
2022/05/19 06:18:39;;;;;;;8.85;4.12;;;;;;;17.81;39.54;101107.00;4441326;32;34174;-78
2022/05/19 06:21:07;;;;;;;7.30;3.55;;;;;;;17.95;41.49;101103.06;4441105;32;34631;-79
2022/05/19 06:23:35;;;;;;;21.08;3.75;;;;;;;18.04;39.38;101107.28;4441254;32;34470;-79
2022/05/19 06:26:08;;;;;;;30.83;5.57;;;;;;;18.32;39.89;101100.44;4441118;32;33170;-92
2022/05/19 06:28:41;;;;;;;36.47;4.57;;;;;;;18.71;42.35;101102.94;4441199;32;31876;-92
2022/05/19 06:31:09;;;;;;;9.48;3.37;;;;;;;18.85;43.34;101113.94;4428383;32;32852;-89
2022/05/19 06:33:41;;;;;;;9.57;3.30;;;;;;;18.88;35.94;101122.66;4416983;32;32883;-89
2022/05/19 06:36:10;;;;;;;11.50;2.92;;;;;;;18.90;41.51;101112.16;4412998;32;32511;-88
2022/05/19 06:38:41;;;;;;;11.85;3.10;;;;;;;19.24;33.98;101113.50;4425696;32;33429;-88
2022/05/19 06:43:56;;;;;;;9.43;2.75;;;;;;;19.22;35.21;101110.09;4427482;32;33368;-88
2022/05/19 06:46:27;;;;;;;10.60;2.62;;;;;;;19.48;35.42;101111.72;4425645;32;32495;-87
2022/05/19 06:48:57;;;;;;;6.82;2.78;;;;;;;19.69;37.99;101107.63;4425753;32;34339;-87
2022/05/19 06:51:28;;;;;;;5.45;2.12;;;;;;;19.72;34.49;101109.94;4425847;32;33502;-86
2022/05/19 06:53:59;;;;;;;8.85;3.40;;;;;;;19.98;34.42;101106.78;4425462;32;33490;-86
2022/05/19 06:56:30;;;;;;;6.28;2.62;;;;;;;19.62;35.96;101112.41;4413103;32;32631;-87
2022/05/19 06:59:00;;;;;;;7.03;2.55;;;;;;;19.87;33.43;101110.38;4413181;32;31900;-88
2022/05/19 07:01:30;;;;;;;6.65;2.25;;;;;;;20.22;33.12;101110.47;4412689;32;32726;-87
2022/05/19 07:04:00;;;;;;;7.65;2.25;;;;;;;20.24;31.17;101110.25;4425740;32;34500;-86
2022/05/19 07:06:39;;;;;;;10.00;3.30;;;;;;;20.15;29.27;101115.31;4426330;32;33130;-87
2022/05/19 07:09:07;;;;;;;9.15;2.60;;;;;;;20.09;33.07;101115.44;4412115;32;32205;-87
2022/05/19 07:11:36;;;;;;;7.15;2.20;;;;;;;20.20;33.07;101106.22;4425305;32;32947;-87
2022/05/19 07:14:06;;;;;;;7.30;2.10;;;;;;;20.35;33.07;101110.28;4425285;32;34310;-87
2022/05/19 07:16:35;;;;;;;6.43;2.20;;;;;;;20.43;33.32;101103.53;4425391;32;33388;-86
2022/05/19 07:21:57;;;;;;;5.32;2.08;;;;;;;20.65;29.15;101104.69;4423989;32;33654;-86
2022/05/19 07:24:25;;;;;;;5.50;2.03;;;;;;;20.66;29.01;101100.78;4425324;32;34434;-87
2022/05/19 07:26:55;;;;;;;8.10;2.53;;;;;;;20.79;27.10;101105.28;4425204;32;34142;-87
2022/05/19 07:29:23;;;;;;;7.57;2.65;;;;;;;20.86;25.32;101102.34;4425450;32;34139;-87
2022/05/19 07:31:58;;;;;;;7.00;2.10;;;;;;;20.84;26.97;101112.91;4425364;32;33738;-87
2022/05/19 07:34:31;;;;;;;7.28;2.80;;;;;;;20.77;24.20;101101.03;4425211;32;33671;-87
2022/05/19 07:36:59;;;;;;;5.47;2.37;;;;;;;21.02;27.95;101098.84;4424112;32;33429;-87
2022/05/19 07:39:27;;;;;;;10.57;2.70;;;;;;;21.05;27.20;101102.00;4412148;32;33155;-88
2022/05/19 07:41:58;;;;;;;7.93;3.97;;;;;;;21.04;24.06;101099.44;4413366;32;33248;-88
2022/05/19 07:44:30;;;;;;;7.15;2.97;;;;;;;21.08;24.18;101099.81;4430529;32;32825;-88
2022/05/19 07:47:01;;;;;;;7.05;2.85;;;;;;;21.31;25.08;101092.28;4453306;32;34020;-89
2022/05/19 07:49:29;;;;;;;10.38;2.20;;;;;;;21.33;26.25;101104.06;4441761;32;31591;-90
2022/05/19 07:51:57;;;;;;;4.28;1.52;;;;;;;21.54;22.87;101093.31;4441495;32;33698;-87
2022/05/19 07:54:28;;;;;;;6.62;2.40;;;;;;;21.53;23.21;101095.25;4442523;32;32936;-86
2022/05/19 07:56:59;;;;;;;10.10;3.03;;;;;;;21.48;23.69;101091.50;4455496;32;35078;-88
2022/05/19 07:59:28;;;;;;;10.27;3.83;;;;;;;21.66;24.21;101088.53;4441465;32;33276;-87
2022/05/19 08:02:01;;;;;;;8.20;3.87;;;;;;;21.78;24.24;101089.34;4428706;32;33296;-86
2022/05/19 08:04:30;;;;;;;8.05;2.50;;;;;;;21.84;24.30;101096.75;4440593;32;33326;-88
2022/05/19 08:07:00;;;;;;;8.75;2.17;;;;;;;22.01;23.81;101096.78;4440517;32;32826;-88
2022/05/19 08:18:22;;;;;;;4.07;1.90;;;;;;;22.25;21.44;101101.16;4433616;32;32690;-89
2022/05/19 08:20:59;;;;;;;6.15;2.40;;;;;;;22.31;21.62;101096.53;4426831;32;31770;-89
2022/05/19 08:23:36;;;;;;;5.62;1.62;;;;;;;22.18;21.69;101091.25;4440799;32;33717;-90
2022/05/19 08:26:24;;;;;;;6.45;1.80;;;;;;;22.29;20.70;101093.12;4427523;32;32877;-90
2022/05/19 08:28:55;;;;;;;3.00;1.30;;;;;;;22.65;20.41;101098.25;4440398;32;33192;-90
2022/05/19 08:31:28;;;;;;;3.22;1.15;;;;;;;22.40;20.69;101089.41;4440122;32;33154;-90
2022/05/19 08:33:58;;;;;;;7.65;1.67;;;;;;;22.64;21.47;101082.56;4440097;32;33918;-90
2022/05/19 08:36:26;;;;;;;2.75;1.27;;;;;;;22.84;21.23;101089.59;4440132;32;33322;-89
2022/05/19 08:38:57;;;;;;;7.25;1.73;;;;;;;22.88;21.35;101087.97;4439968;32;33690;-89
2022/05/19 08:41:36;;;;;;;5.72;1.60;;;;;;;22.93;22.03;101093.66;4427769;32;31937;-89
2022/05/19 08:44:16;;;;;;;16.30;10.30;;;;;;;23.04;21.37;101078.72;4440433;32;33929;-90
2022/05/19 08:46:47;;;;;;;5.87;1.98;;;;;;;23.30;21.92;101086.38;4440571;32;34531;-90
2022/05/19 08:49:42;;;;;;;3.62;1.42;;;;;;;23.29;21.59;101086.62;4427903;32;32611;-90
2022/05/19 08:52:15;;;;;;;5.40;1.80;;;;;;;23.49;20.82;101086.88;4439964;32;33987;-89
2022/05/19 08:54:47;;;;;;;8.05;3.60;;;;;;;23.53;21.26;101081.59;4439864;32;33487;-89
2022/05/19 08:57:21;;;;;;;3.72;1.75;;;;;;;23.65;20.74;101080.41;4439907;32;34319;-89
2022/05/19 09:00:13;;;;;;;6.32;2.10;;;;;;;23.70;20.97;101081.56;4427121;32;33235;-89
2022/05/19 09:02:59;;;;;;;7.25;2.10;;;;;;;23.93;21.10;101084.09;4439761;32;31500;-90
2022/05/19 09:05:48;;;;;;;4.65;1.20;;;;;;;23.95;20.39;101077.09;4452382;32;33264;-89
2022/05/19 09:08:32;;;;;;;3.80;1.33;;;;;;;24.22;20.97;101076.22;4452304;32;35229;-90
2022/05/19 09:11:14;;;;;;;4.35;1.20;;;;;;;24.28;20.02;101075.19;4439623;32;32543;-90
2022/05/19 09:13:47;;;;;;;4.40;1.17;;;;;;;24.43;19.58;101069.72;4452272;32;33415;-89
2022/05/19 09:16:22;;;;;;;4.18;1.50;;;;;;;24.31;20.43;101066.25;4337873;32;3014268;-89
2022/05/19 09:19:02;;;;;;;3.87;1.20;;;;;;;24.60;20.48;101056.41;4452011;32;33392;-90
2022/05/19 09:21:34;;;;;;;6.20;1.23;;;;;;;24.48;19.70;101063.31;4440243;32;34096;-90
2022/05/19 09:24:05;;;;;;;2.67;1.10;;;;;;;24.63;19.66;101058.69;4439469;32;33210;-90
2022/05/19 09:26:54;;;;;;;6.22;1.50;;;;;;;24.91;20.15;101053.78;4439439;32;33834;-90
2022/05/19 09:29:40;;;;;;;3.20;1.20;;;;;;;25.11;20.14;101059.56;4439259;32;34704;-89
2022/05/19 09:32:17;;;;;;;3.00;1.17;;;;;;;25.29;20.97;101052.66;4441711;32;33981;-89
2022/05/19 09:34:52;;;;;;;2.45;0.80;;;;;;;25.24;18.56;101059.09;4441729;32;32152;-90
2022/05/19 09:37:42;;;;;;;3.55;1.15;;;;;;;25.58;18.86;101053.87;4441677;32;34476;-89
2022/05/19 09:40:20;;;;;;;4.05;1.02;;;;;;;25.68;18.50;101044.69;4441897;32;34600;-91
2022/05/19 09:43:18;;;;;;;2.25;1.25;;;;;;;25.68;18.65;101047.50;4433683;32;32347;-90
2022/05/19 09:45:56;;;;;;;8.27;1.10;;;;;;;26.07;17.83;101052.62;4454247;32;34454;-89
2022/05/19 09:48:29;;;;;;;3.42;1.10;;;;;;;25.99;18.58;101048.41;4441421;32;33415;-90
2022/05/19 09:51:08;;;;;;;6.15;1.08;;;;;;;26.37;18.12;101041.44;4441679;32;34604;-90
2022/05/19 09:53:40;;;;;;;6.18;1.30;;;;;;;26.55;18.13;101035.25;4429241;32;34727;-89
2022/05/19 09:56:13;;;;;;;3.85;1.20;;;;;;;26.45;16.88;101028.78;4441732;32;33470;-90
2022/05/19 09:58:48;;;;;;;3.17;1.10;;;;;;;26.75;17.20;101030.69;4428714;32;33276;-91
2022/05/19 10:01:39;;;;;;;2.97;1.20;;;;;;;27.01;17.19;101021.09;4454457;32;34420;-90
2022/05/19 10:04:14;;;;;;;4.82;1.10;;;;;;;26.96;17.15;101039.97;4428588;32;32674;-89
2022/05/19 10:07:08;;;;;;;6.00;1.02;;;;;;;27.18;17.52;101021.62;4441467;32;33537;-91
2022/05/19 10:09:42;;;;;;;4.60;1.45;;;;;;;27.26;16.20;101014.53;4455547;32;33398;-90
2022/05/19 10:12:13;;;;;;;6.32;1.20;;;;;;;27.15;17.64;101019.38;4428825;32;33599;-90
2022/05/19 10:14:44;;;;;;;2.90;1.12;;;;;;;27.21;16.61;101021.03;4453791;32;33702;-91
2022/05/19 10:17:39;;;;;;;5.62;1.08;;;;;;;27.50;16.87;101018.34;4441729;32;33289;-90
2022/05/19 10:20:23;;;;;;;3.30;1.10;;;;;;;27.62;18.41;101018.06;4415500;32;33177;-90
2022/05/19 10:23:40;;;;;;;4.20;1.45;;;;;;;27.67;16.31;101011.53;4454444;32;34337;-90
2022/05/19 10:26:22;;;;;;;3.72;1.05;;;;;;;27.59;15.29;101007.34;4441093;32;32608;-91
2022/05/19 10:31:54;;;;;;;2.97;0.98;;;;;;;28.14;13.89;101002.47;4453808;32;33290;-91
2022/05/19 10:34:59;;;;;;;2.90;1.00;;;;;;;28.26;15.35;101002.13;4441053;32;32893;-90
2022/05/19 10:37:52;;;;;;;4.80;1.27;;;;;;;28.38;15.98;100989.31;4441074;32;33895;-90
2022/05/19 10:40:54;;;;;;;9.73;1.52;;;;;;;28.47;16.43;100983.88;4428658;32;32747;-88
2022/05/19 10:43:54;;;;;;;4.75;1.37;;;;;;;28.53;16.06;100975.03;4440629;32;32149;-88
2022/05/19 10:46:29;;;;;;;2.25;1.00;;;;;;;28.82;16.66;100985.50;4453766;32;34853;-88
2022/05/19 10:49:17;;;;;;;4.37;1.10;;;;;;;28.97;15.37;100976.84;4441224;32;34945;-88
2022/05/19 10:52:02;;;;;;;4.30;1.23;;;;;;;29.04;15.05;100970.84;4441054;32;31911;-88
2022/05/19 10:54:53;;;;;;;3.37;0.88;;;;;;;29.30;15.24;100960.88;4453607;32;33525;-87
2022/05/19 10:57:24;;;;;;;3.12;1.00;;;;;;;29.40;13.92;100965.53;4453748;32;35398;-88
2022/05/19 11:00:19;;;;;;;31.70;20.88;;;;;;;29.48;15.10;100967.72;4453615;32;34218;-88
2022/05/19 11:03:14;;;;;;;10.43;3.28;;;;;;;29.63;14.88;100956.19;4441172;32;33880;-90
2022/05/19 11:09:02;;;;;;;55.72;45.67;;;;;;;29.72;14.86;100939.38;4431915;32;32707;-90
2022/05/19 11:12:21;;;;;;;24.08;19.48;;;;;;;30.20;13.76;100937.19;4453445;32;33837;-90
2022/05/19 11:15:23;;;;;;;51.22;39.65;;;;;;;30.28;13.80;100941.31;4434586;32;33823;-90
2022/05/19 11:18:16;;;;;;;32.40;28.25;;;;;;;30.28;14.10;100936.47;4453644;32;33379;-90
2022/05/19 11:20:53;;;;;;;33.80;26.87;;;;;;;30.42;14.88;100934.53;4450803;32;34605;-90
2022/05/19 11:23:51;;;;;;;9.40;5.68;;;;;;;30.53;14.80;100938.00;4458213;32;32378;-90
2022/05/19 11:26:44;;;;;;;16.85;12.32;;;;;;;30.43;12.38;100924.87;4432046;32;31325;-90
2022/05/19 11:29:26;;;;;;;4.68;2.28;;;;;;;30.82;13.37;100917.06;4440631;32;32302;-90
2022/05/19 11:32:08;;;;;;;6.03;1.92;;;;;;;30.68;12.29;100925.53;4413929;32;32944;-90
2022/05/19 11:34:51;;;;;;;6.85;3.15;;;;;;;30.52;13.44;100908.00;4425223;32;34898;-90
2022/05/19 11:37:44;;;;;;;4.12;1.10;;;;;;;30.76;14.89;100905.81;4427902;32;33445;-90
2022/05/19 11:40:32;;;;;;;3.80;1.92;;;;;;;30.54;14.97;100911.34;4440952;32;33897;-89
2022/05/19 11:43:06;;;;;;;5.10;2.12;;;;;;;30.79;13.06;100908.03;4427787;32;32907;-89
2022/05/19 11:45:44;;;;;;;5.55;1.90;;;;;;;30.78;13.03;100900.66;4439613;32;34095;-89
2022/05/19 11:58:09;;;;;;;1.90;0.93;;;;;;;30.54;12.54;100885.00;4440182;32;34143;-90
2022/05/19 12:00:49;;;;;;;4.07;1.40;;;;;;;30.84;13.20;100887.25;4428221;32;34149;-90
2022/05/19 12:03:18;;;;;;;1.92;1.12;;;;;;;30.99;12.85;100886.91;4427909;32;33189;-90
2022/05/19 12:05:56;;;;;;;7.35;1.10;;;;;;;30.93;12.49;100885.34;4440415;32;35224;-89
2022/05/19 12:08:40;;;;;;;2.75;1.12;;;;;;;30.98;12.44;100865.38;4427392;32;34147;-91
2022/05/19 12:11:40;;;;;;;3.65;1.00;;;;;;;31.29;12.00;100876.06;4429689;32;33249;-90
2022/05/19 12:14:12;;;;;;;1.92;0.82;;;;;;;31.29;12.25;100864.72;4426721;32;33296;-90
2022/05/19 12:16:47;;;;;;;4.15;1.00;;;;;;;31.33;12.55;100858.06;4448063;32;33092;-90
2022/05/19 12:19:38;;;;;;;3.15;0.95;;;;;;;31.25;11.93;100869.34;4439686;32;32509;-88
2022/05/19 12:22:17;;;;;;;6.37;1.20;;;;;;;31.07;12.29;100854.97;4436289;32;33560;-93
2022/05/19 12:24:52;;;;;;;6.07;1.87;;;;;;;31.16;11.44;100857.09;4425326;32;33788;-91
2022/05/19 12:27:29;;;;;;;5.05;1.00;;;;;;;31.12;11.61;100854.03;4425148;32;34555;-91
2022/05/19 12:33:15;;;;;;;2.20;1.00;;;;;;;31.01;12.07;100853.41;4413932;32;31950;-92
2022/05/19 12:35:49;;;;;;;2.37;1.00;;;;;;;31.10;11.88;100851.50;4412511;32;32423;-91
2022/05/19 12:38:38;;;;;;;3.00;1.05;;;;;;;31.25;12.08;100850.31;4424603;32;32963;-93
2022/05/19 12:41:23;;;;;;;1.42;0.70;;;;;;;31.10;11.43;100850.66;4425625;32;34111;-90